Arden, North Carolina
Current Conditions -  °F | °C
As of 9:54 AM on Saturday 01 Nov 2014 (Local Time) from KAVL Reporting Station
Light Snow Light Snow  
Wind Chill: 22°   Ceiling: 2600
Heat Index: 34°   Visibility: 2.5mi
Dew Point: 29°   Wind: 22mph
Humidity: 82%   Direction: 350°N
Pressure: 29.85"   Gusts: 38mph
Location:  35.47°N, 82.52°W
Report Text: KAVL 011354Z 35019G33KT 2 1/2SM -SN BKN026 BKN036 OVC100 01/M02 A2985 RMK AO2 PK WND 35033/1315 SLP113 P0000 T00111017
Loading
Personal Weather Stations






























Interactive Weather Map
Tropical Storm Tracking
New forecast layout! Learn more

10-Day Weather Forecast

Advertisements
Track Severe Weather on mobile